Time;durP1;ratioP1;P1;durP2;ratioP2;P2;SDS_P1;SDS_P2;PMS_P1;PMS_P2;Temp;Humidity;BMP_temperature;BMP_pressure;BME280_temperature;BME280_humidity;BME280_pressure;Samples;Min_cycle;Max_cycle;Signal;HPM_P1;HPM_P2
2021/01/26 08:43:11;;;;;;;;;26.75;26.50;;;;;;;;1580391;27;83120;-90
2021/01/26 08:43:57;;;;;;;;;33.33;25.00;;;;;;;;1572784;27;84672;-90
2021/01/26 08:44:46;;;;;;;;;28.67;25.33;;;;;;;;1566588;27;85090;-88
2021/01/26 08:45:32;;;;;;;;;36.25;24.50;;;;;;;;1569692;27;86393;-90
2021/01/26 08:46:31;;;;;;;;;24.00;23.50;;;;;;;;1566618;27;84803;-89
2021/01/26 08:47:35;;;;;;;;;21.50;17.25;;;;;;;;1577280;27;85938;-89
2021/01/26 08:48:28;;;;;;;;;22.00;20.25;;;;;;;;1578791;27;84478;-91
2021/01/26 08:49:30;;;;;;;;;26.50;24.25;;;;;;;;1567744;27;83703;-91
2021/01/26 08:50:15;;;;;;;;;29.50;26.25;;;;;;;;1566830;27;85409;-90
2021/01/26 08:51:03;;;;;;;;;23.50;22.75;;;;;;;;1565184;27;85168;-91
2021/01/26 08:51:49;;;;;;;;;26.40;26.40;;;;;;;;1563833;27;84986;-91
2021/01/26 08:52:34;;;;;;;;;31.25;26.50;;;;;;;;1562465;27;86233;-90
2021/01/26 08:53:26;;;;;;;;;29.50;25.00;;;;;;;;1562071;27;86131;-90
2021/01/26 08:54:31;;;;;;;;;34.00;25.60;;;;;;;;1562979;27;83501;-89
2021/01/26 08:55:31;;;;;;;;;17.20;14.20;;;;;;;;1565531;27;84756;-88
2021/01/26 08:56:22;;;;;;;;;27.80;23.40;;;;;;;;1566035;27;86304;-90
2021/01/26 08:57:21;;;;;;;;;27.40;23.40;;;;;;;;1565049;27;84885;-90
2021/01/26 08:58:11;;;;;;;;;20.60;20.60;;;;;;;;1567548;27;84033;-88
2021/01/26 08:58:57;;;;;;;;;18.60;18.60;;;;;;;;1563661;27;85274;-90
2021/01/26 08:59:43;;;;;;;;;21.00;21.00;;;;;;;;1568692;27;86189;-90
2021/01/26 09:00:36;;;;;;;;;23.75;21.00;;;;;;;;1565606;27;86144;-90
2021/01/26 09:01:22;;;;;;;;;29.60;23.60;;;;;;;;1562420;27;84764;-89
2021/01/26 09:02:08;;;;;;;;;22.25;18.75;;;;;;;;1562389;27;84929;-90
2021/01/26 09:02:54;;;;;;;;;16.20;14.80;;;;;;;;1561097;27;84842;-90
2021/01/26 09:03:41;;;;;;;;;25.40;16.00;;;;;;;;1568485;27;83753;-89
2021/01/26 09:04:27;;;;;;;;;22.80;22.20;;;;;;;;1573113;27;84570;-91
2021/01/26 09:05:32;;;;;;;;;25.50;21.50;;;;;;;;1568158;27;84530;-90
2021/01/26 09:06:26;;;;;;;;;19.00;19.00;;;;;;;;1566819;27;85318;-89
2021/01/26 09:07:31;;;;;;;;;24.00;19.80;;;;;;;;1562060;28;84555;-89
2021/01/26 09:08:52;;;;;;;;;23.80;22.20;;;;;;;;1559188;27;85224;-90
2021/01/26 09:09:44;;;;;;;;;24.40;21.80;;;;;;;;1564736;27;85515;-90
2021/01/26 09:10:38;;;;;;;;;16.00;14.00;;;;;;;;1559227;28;85626;-90
2021/01/26 09:11:28;;;;;;;;;25.60;20.40;;;;;;;;1556994;28;85799;-90
2021/01/26 09:12:19;;;;;;;;;21.80;20.00;;;;;;;;1552858;28;86945;-90
2021/01/26 09:13:13;;;;;;;;;17.00;16.00;;;;;;;;1550922;28;85667;-90
2021/01/26 09:14:04;;;;;;;;;24.20;20.80;;;;;;;;1550951;28;84729;-90
2021/01/26 09:14:51;;;;;;;;;18.20;17.20;;;;;;;;1550358;28;87337;-90
2021/01/26 09:15:43;;;;;;;;;18.40;17.40;;;;;;;;1562303;27;85067;-89
2021/01/26 09:16:29;;;;;;;;;22.80;19.00;;;;;;;;1562524;27;85305;-90
2021/01/26 09:17:23;;;;;;;;;20.00;18.25;;;;;;;;1559087;28;84529;-89
2021/01/26 09:18:08;;;;;;;;;19.60;18.60;;;;;;;;1558886;28;84191;-89
2021/01/26 09:18:58;;;;;;;;;23.75;20.75;;;;;;;;1554892;28;84383;-89
2021/01/26 09:19:53;;;;;;;;;19.00;18.60;;;;;;;;1551184;28;84211;-89
2021/01/26 09:20:40;;;;;;;;;14.00;12.80;;;;;;;;1554731;28;86753;-89
2021/01/26 09:21:29;;;;;;;;;17.60;17.00;;;;;;;;1563866;27;85108;-91
2021/01/26 09:22:20;;;;;;;;;20.20;17.20;;;;;;;;1556496;28;84437;-88
2021/01/26 09:23:05;;;;;;;;;20.80;17.20;;;;;;;;1556398;28;85054;-90
2021/01/26 09:23:54;;;;;;;;;18.25;18.25;;;;;;;;1552996;28;85853;-90
2021/01/26 09:24:41;;;;;;;;;20.00;18.60;;;;;;;;1555406;28;85176;-90
2021/01/26 09:25:30;;;;;;;;;14.80;14.60;;;;;;;;1559113;28;85628;-90
2021/01/26 09:26:17;;;;;;;;;20.20;18.20;;;;;;;;1559132;28;85595;-90
2021/01/26 09:27:15;;;;;;;;;16.40;15.40;;;;;;;;1555349;28;85395;-89
2021/01/26 09:28:01;;;;;;;;;18.20;18.00;;;;;;;;1565553;27;84422;-89
2021/01/26 09:28:47;;;;;;;;;22.00;19.25;;;;;;;;1569553;27;85569;-89
2021/01/26 09:29:33;;;;;;;;;17.20;17.20;;;;;;;;1563275;27;85254;-90
2021/01/26 09:30:18;;;;;;;;;21.00;20.00;;;;;;;;1552743;28;87470;-89
2021/01/26 09:31:04;;;;;;;;;16.50;16.50;;;;;;;;1554802;28;85550;-90
2021/01/26 09:31:50;;;;;;;;;24.20;19.80;;;;;;;;1555272;28;83609;-89
2021/01/26 09:32:36;;;;;;;;;16.00;12.50;;;;;;;;1554740;28;86479;-89
2021/01/26 09:33:23;;;;;;;;;18.80;17.60;;;;;;;;1552868;28;86379;-90
2021/01/26 09:34:09;;;;;;;;;18.80;15.40;;;;;;;;1555346;28;83601;-89
2021/01/26 09:34:54;;;;;;;;;18.50;16.50;;;;;;;;1552744;28;86742;-89
2021/01/26 09:35:47;;;;;;;;;21.00;16.50;;;;;;;;1554557;28;85146;-89
2021/01/26 09:36:35;;;;;;;;;18.00;17.80;;;;;;;;1555847;28;85538;-89
2021/01/26 09:37:22;;;;;;;;;22.00;16.40;;;;;;;;1559012;28;83617;-90
2021/01/26 09:38:12;;;;;;;;;12.40;10.00;;;;;;;;1552897;28;84085;-91
2021/01/26 09:39:17;;;;;;;;;15.80;15.00;;;;;;;;1549601;28;86569;-90
2021/01/26 09:40:06;;;;;;;;;16.00;15.00;;;;;;;;1549297;28;85131;-91
2021/01/26 09:41:00;;;;;;;;;16.40;15.00;;;;;;;;1561575;28;84740;-92
2021/01/26 09:41:48;;;;;;;;;17.00;16.80;;;;;;;;1563378;28;85317;-90
2021/01/26 09:42:34;;;;;;;;;20.60;17.60;;;;;;;;1554947;27;85306;-91
2021/01/26 09:43:31;;;;;;;;;5.25;5.25;;;;;;;;1547254;28;84962;-91
2021/01/26 09:44:20;;;;;;;;;17.00;16.80;;;;;;;;1559126;28;82648;-91
2021/01/26 09:45:09;;;;;;;;;17.80;17.80;;;;;;;;1575874;27;83549;-89
2021/01/26 09:45:57;;;;;;;;;18.40;18.20;;;;;;;;1572448;27;83549;-91
2021/01/26 09:46:45;;;;;;;;;19.40;17.20;;;;;;;;1569146;27;84824;-91
2021/01/26 09:47:30;;;;;;;;;17.80;17.20;;;;;;;;1568223;27;83816;-90
2021/01/26 09:48:23;;;;;;;;;15.75;15.75;;;;;;;;1569812;27;84517;-91
2021/01/26 09:49:21;;;;;;;;;21.00;17.40;;;;;;;;1564428;27;85336;-92
2021/01/26 09:50:11;;;;;;;;;14.60;14.60;;;;;;;;1564947;28;83680;-91
2021/01/26 09:51:03;;;;;;;;;25.20;19.20;;;;;;;;1564350;28;84018;-89
2021/01/26 09:51:51;;;;;;;;;16.80;15.80;;;;;;;;1573597;27;85224;-87
2021/01/26 09:52:39;;;;;;;;;16.40;16.40;;;;;;;;1574320;27;83573;-90
2021/01/26 09:53:25;;;;;;;;;16.60;16.60;;;;;;;;1569006;27;83953;-89
2021/01/26 09:54:12;;;;;;;;;18.50;16.25;;;;;;;;1562222;28;83555;-91
2021/01/26 09:55:03;;;;;;;;;21.80;16.80;;;;;;;;1576197;27;83860;-91
2021/01/26 09:55:51;;;;;;;;;14.80;14.80;;;;;;;;1573685;27;83411;-89
2021/01/26 09:56:38;;;;;;;;;17.00;14.40;;;;;;;;1564414;28;83499;-90
2021/01/26 09:57:27;;;;;;;;;19.20;18.20;;;;;;;;1569178;27;83647;-92
2021/01/26 09:58:13;;;;;;;;;14.40;14.20;;;;;;;;1570358;27;85855;-91
2021/01/26 09:59:01;;;;;;;;;17.60;17.00;;;;;;;;1570269;27;86385;-92
2021/01/26 09:59:46;;;;;;;;;18.60;18.00;;;;;;;;1561080;28;83639;-93
2021/01/26 10:00:33;;;;;;;;;22.00;22.00;;;;;;;;1556492;28;85117;-90
2021/01/26 10:01:19;;;;;;;;;15.40;14.40;;;;;;;;1555841;28;85354;-90
2021/01/26 10:02:10;;;;;;;;;13.40;13.00;;;;;;;;1560380;27;83533;-92
2021/01/26 10:02:57;;;;;;;;;21.60;18.60;;;;;;;;1565743;28;85126;-90
2021/01/26 10:03:42;;;;;;;;;15.40;13.40;;;;;;;;1560593;28;85171;-90
2021/01/26 10:04:40;;;;;;;;;10.50;10.50;;;;;;;;1563829;28;84903;-91
2021/01/26 10:05:27;;;;;;;;;12.80;11.00;;;;;;;;1565119;28;86572;-91
2021/01/26 10:06:12;;;;;;;;;9.80;8.20;;;;;;;;1567045;28;85785;-90
2021/01/26 10:06:59;;;;;;;;;17.50;13.75;;;;;;;;1566995;28;85194;-91
2021/01/26 10:07:45;;;;;;;;;12.40;12.40;;;;;;;;1564359;27;85178;-90
2021/01/26 10:08:31;;;;;;;;;16.25;15.25;;;;;;;;1559990;28;84046;-91
2021/01/26 10:09:22;;;;;;;;;12.80;12.80;;;;;;;;1562391;28;85339;-91
2021/01/26 10:10:19;;;;;;;;;15.60;15.60;;;;;;;;1564878;27;85986;-91
2021/01/26 10:11:08;;;;;;;;;15.60;15.60;;;;;;;;1560256;28;83706;-92
2021/01/26 10:11:54;;;;;;;;;15.20;14.00;;;;;;;;1559283;28;84974;-91
2021/01/26 10:12:40;;;;;;;;;23.40;19.80;;;;;;;;1564414;27;84967;-91
2021/01/26 10:13:32;;;;;;;;;19.50;17.00;;;;;;;;1572512;27;85676;-91
2021/01/26 10:14:27;;;;;;;;;13.40;13.40;;;;;;;;1571913;27;83479;-91
2021/01/26 10:15:24;;;;;;;;;15.00;14.00;;;;;;;;1560625;27;85053;-91
2021/01/26 10:16:28;;;;;;;;;15.40;12.00;;;;;;;;1553260;28;84880;-92
2021/01/26 10:17:18;;;;;;;;;11.80;11.80;;;;;;;;1556116;28;86487;-91
2021/01/26 10:18:11;;;;;;;;;10.00;9.40;;;;;;;;1561529;28;83970;-91
2021/01/26 10:18:57;;;;;;;;;17.20;15.20;;;;;;;;1556400;28;85398;-91
2021/01/26 10:19:42;;;;;;;;;17.80;15.40;;;;;;;;1557133;28;84483;-91
2021/01/26 10:20:29;;;;;;;;;15.50;14.00;;;;;;;;1562264;28;85540;-91
2021/01/26 10:21:24;;;;;;;;;21.40;17.20;;;;;;;;1563001;28;84195;-91
2021/01/26 10:22:18;;;;;;;;;11.80;9.40;;;;;;;;1566062;28;84599;-90
2021/01/26 10:23:05;;;;;;;;;13.80;13.80;;;;;;;;1565059;28;84070;-91
2021/01/26 10:23:57;;;;;;;;;16.20;14.40;;;;;;;;1564936;28;84109;-90
2021/01/26 10:24:42;;;;;;;;;11.00;10.20;;;;;;;;1559534;28;84405;-91
2021/01/26 10:25:28;;;;;;;;;12.50;12.00;;;;;;;;1556054;28;84240;-91
2021/01/26 10:26:22;;;;;;;;;10.00;9.00;;;;;;;;1553276;28;86675;-91
2021/01/26 10:27:09;;;;;;;;;10.00;9.60;;;;;;;;1555051;28;85170;-90
2021/01/26 10:28:04;;;;;;;;;16.40;15.80;;;;;;;;1567141;27;86842;-90
2021/01/26 10:28:55;;;;;;;;;17.80;15.20;;;;;;;;1569015;27;85924;-90
2021/01/26 10:29:41;;;;;;;;;4.00;4.00;;;;;;;;1561474;28;85677;-91
2021/01/26 10:30:27;;;;;;;;;11.60;11.20;;;;;;;;1559163;28;85371;-92
2021/01/26 10:31:18;;;;;;;;;14.00;14.00;;;;;;;;1554828;28;85402;-91
2021/01/26 10:32:04;;;;;;;;;14.80;13.20;;;;;;;;1553081;28;84120;-90
2021/01/26 10:32:49;;;;;;;;;17.60;13.20;;;;;;;;1555736;28;84837;-91
2021/01/26 10:33:39;;;;;;;;;14.50;13.00;;;;;;;;1564742;27;86453;-92
2021/01/26 10:34:30;;;;;;;;;12.80;12.60;;;;;;;;1564965;27;86914;-90
2021/01/26 10:35:27;;;;;;;;;12.00;10.20;;;;;;;;1559243;28;86969;-90
2021/01/26 10:36:20;;;;;;;;;14.40;14.40;;;;;;;;1554112;28;85595;-92
2021/01/26 10:37:23;;;;;;;;;13.00;13.00;;;;;;;;1562239;28;84149;-91
2021/01/26 10:38:25;;;;;;;;;13.60;13.20;;;;;;;;1557985;28;84632;-92
2021/01/26 10:39:21;;;;;;;;;14.20;11.40;;;;;;;;1556235;28;85506;-91
2021/01/26 10:40:14;;;;;;;;;16.20;15.00;;;;;;;;1561573;28;84656;-91
2021/01/26 10:41:11;;;;;;;;;13.00;13.00;;;;;;;;1568444;27;84260;-92
2021/01/26 10:42:17;;;;;;;;;12.80;12.20;;;;;;;;1563248;27;85413;-91
2021/01/26 10:43:09;;;;;;;;;6.40;5.60;;;;;;;;1557274;28;85099;-91
2021/01/26 10:44:05;;;;;;;;;15.00;11.60;;;;;;;;1554549;28;85342;-92
2021/01/26 10:44:54;;;;;;;;;13.20;12.00;;;;;;;;1552856;28;85019;-92
2021/01/26 10:45:41;;;;;;;;;13.60;12.60;;;;;;;;1552254;28;84961;-92
2021/01/26 10:46:30;;;;;;;;;15.60;12.40;;;;;;;;1557165;28;84677;-91
2021/01/26 10:47:21;;;;;;;;;11.00;9.20;;;;;;;;1554781;28;85404;-90
2021/01/26 10:48:28;;;;;;;;;15.40;13.80;;;;;;;;1555148;28;85370;-91
2021/01/26 10:49:13;;;;;;;;;14.40;14.00;;;;;;;;1566825;27;83892;-91
2021/01/26 10:50:00;;;;;;;;;17.00;15.25;;;;;;;;1566287;27;85035;-92
2021/01/26 10:50:45;;;;;;;;;13.20;12.60;;;;;;;;1565161;27;85718;-91
2021/01/26 10:51:36;;;;;;;;;13.50;13.00;;;;;;;;1560535;28;84999;-92
2021/01/26 10:52:36;;;;;;;;;16.20;14.80;;;;;;;;1561385;28;85149;-92
2021/01/26 10:53:38;;;;;;;;;13.40;13.40;;;;;;;;1555806;28;83887;-93
2021/01/26 10:54:23;;;;;;;;;13.40;13.40;;;;;;;;1554639;28;83673;-92
2021/01/26 10:55:11;;;;;;;;;9.75;9.75;;;;;;;;1558887;28;86270;-92
2021/01/26 10:55:56;;;;;;;;;13.00;13.00;;;;;;;;1561042;28;83585;-92
2021/01/26 10:56:42;;;;;;;;;15.25;14.00;;;;;;;;1556792;28;84849;-92
2021/01/26 10:57:35;;;;;;;;;14.40;12.60;;;;;;;;1563093;27;84730;-92
2021/01/26 10:58:20;;;;;;;;;18.00;17.60;;;;;;;;1567179;27;83005;-92
2021/01/26 10:59:05;;;;;;;;;17.50;14.00;;;;;;;;1560176;28;84846;-92
2021/01/26 10:59:50;;;;;;;;;7.25;5.75;;;;;;;;1563198;27;83701;-92
2021/01/26 11:00:36;;;;;;;;;17.50;15.50;;;;;;;;1561398;27;83904;-92
2021/01/26 11:01:24;;;;;;;;;17.25;15.50;;;;;;;;1558957;28;84528;-93
2021/01/26 11:02:12;;;;;;;;;17.00;15.80;;;;;;;;1548620;28;86039;-91
2021/01/26 11:02:58;;;;;;;;;19.00;19.00;;;;;;;;1551129;28;84693;-91
2021/01/26 11:03:43;;;;;;;;;17.75;16.00;;;;;;;;1550756;28;83567;-92
2021/01/26 11:04:28;;;;;;;;;11.00;11.00;;;;;;;;1560420;28;85382;-92
2021/01/26 11:05:14;;;;;;;;;20.00;15.00;;;;;;;;1561275;28;85782;-91
2021/01/26 11:05:59;;;;;;;;;13.50;12.25;;;;;;;;1554195;28;83759;-91
2021/01/26 11:06:47;;;;;;;;;13.25;10.00;;;;;;;;1557097;27;85337;-91
2021/01/26 11:07:33;;;;;;;;;13.00;13.00;;;;;;;;1560690;28;85248;-92
2021/01/26 11:08:18;;;;;;;;;14.75;14.75;;;;;;;;1558484;28;83868;-92
2021/01/26 11:09:07;;;;;;;;;16.00;16.00;;;;;;;;1554578;28;84384;-90
2021/01/26 11:09:52;;;;;;;;;16.60;13.20;;;;;;;;1554450;28;86580;-91
2021/01/26 11:10:37;;;;;;;;;18.25;13.00;;;;;;;;1560376;28;85631;-91
2021/01/26 11:11:30;;;;;;;;;11.50;11.50;;;;;;;;1559237;27;86023;-91
2021/01/26 11:12:18;;;;;;;;;15.00;15.00;;;;;;;;1563952;27;84933;-92
2021/01/26 11:13:36;;;;;;;;;15.80;14.20;;;;;;;;1555504;28;86383;-93
2021/01/26 11:14:21;;;;;;;;;16.60;16.40;;;;;;;;1548565;28;86589;-92
2021/01/26 11:15:33;;;;;;;;;15.50;14.00;;;;;;;;1562160;28;85277;-93
2021/01/26 11:16:18;;;;;;;;;13.40;12.00;;;;;;;;1548148;28;83276;-92
2021/01/26 11:17:03;;;;;;;;;17.25;16.50;;;;;;;;1548517;28;83413;-93
2021/01/26 11:17:51;;;;;;;;;18.75;17.50;;;;;;;;1547913;28;85103;-92
2021/01/26 11:18:37;;;;;;;;;16.00;14.00;;;;;;;;1548333;28;85610;-91
2021/01/26 11:19:23;;;;;;;;;11.50;9.75;;;;;;;;1541898;28;83573;-91
2021/01/26 11:20:09;;;;;;;;;15.25;14.25;;;;;;;;1542227;28;85286;-90
2021/01/26 11:20:55;;;;;;;;;16.60;14.00;;;;;;;;1543952;28;83724;-92
2021/01/26 11:21:40;;;;;;;;;14.25;12.75;;;;;;;;1541548;28;86093;-92
2021/01/26 11:22:28;;;;;;;;;16.75;15.75;;;;;;;;1541749;28;85987;-91
2021/01/26 11:23:13;;;;;;;;;19.60;16.60;;;;;;;;1544163;28;85381;-92
2021/01/26 11:23:59;;;;;;;;;14.00;14.00;;;;;;;;1542004;28;85315;-94
2021/01/26 11:24:48;;;;;;;;;13.50;13.50;;;;;;;;1541870;28;84016;-94
2021/01/26 11:25:37;;;;;;;;;9.20;8.20;;;;;;;;1544171;28;85913;-93
2021/01/26 11:26:28;;;;;;;;;12.60;12.60;;;;;;;;1545178;28;85136;-94
2021/01/26 11:27:13;;;;;;;;;13.00;12.00;;;;;;;;1542011;28;84934;-93
2021/01/26 11:28:01;;;;;;;;;16.00;13.00;;;;;;;;1544555;28;85757;-92
2021/01/26 11:28:47;;;;;;;;;16.40;14.20;;;;;;;;1541894;28;83944;-93
2021/01/26 11:29:32;;;;;;;;;17.75;16.00;;;;;;;;1544723;28;84056;-91
2021/01/26 11:30:20;;;;;;;;;22.00;17.75;;;;;;;;1543908;28;85180;-92
2021/01/26 11:31:13;;;;;;;;;14.60;14.60;;;;;;;;1542045;28;85972;-92
2021/01/26 11:31:59;;;;;;;;;15.00;15.00;;;;;;;;1541805;28;86970;-92
2021/01/26 11:32:53;;;;;;;;;11.25;10.00;;;;;;;;1544575;28;84267;-92
2021/01/26 11:33:43;;;;;;;;;13.00;13.00;;;;;;;;1541983;28;85526;-93
2021/01/26 11:34:38;;;;;;;;;14.40;14.00;;;;;;;;1542465;28;85152;-92
2021/01/26 11:35:24;;;;;;;;;12.40;12.40;;;;;;;;1548310;28;84302;-92
2021/01/26 11:36:10;;;;;;;;;15.60;15.60;;;;;;;;1548141;28;85808;-93
2021/01/26 11:36:55;;;;;;;;;14.50;11.50;;;;;;;;1541814;28;85913;-93
2021/01/26 11:37:47;;;;;;;;;16.50;14.75;;;;;;;;1548123;28;84309;-91
2021/01/26 11:38:32;;;;;;;;;17.20;12.40;;;;;;;;1550880;28;84809;-92
2021/01/26 11:39:20;;;;;;;;;18.00;14.00;;;;;;;;1551349;28;86627;-94
2021/01/26 11:40:06;;;;;;;;;16.00;13.60;;;;;;;;1548057;28;84084;-91
2021/01/26 11:40:56;;;;;;;;;18.75;15.25;;;;;;;;1553518;28;84326;-93
2021/01/26 11:41:41;;;;;;;;;17.00;17.00;;;;;;;;1547993;28;85918;-91
2021/01/26 11:42:27;;;;;;;;;19.00;16.50;;;;;;;;1538805;28;85475;-91
2021/01/26 11:43:12;;;;;;;;;21.25;16.50;;;;;;;;1531862;28;85156;-92
2021/01/26 11:43:58;;;;;;;;;10.50;10.50;;;;;;;;1531536;28;86487;-92
2021/01/26 11:44:43;;;;;;;;;17.00;15.00;;;;;;;;1537589;28;85065;-93
2021/01/26 11:45:33;;;;;;;;;21.00;17.50;;;;;;;;1547991;28;85391;-92
2021/01/26 11:46:18;;;;;;;;;15.60;15.00;;;;;;;;1554228;28;86444;-91
2021/01/26 11:47:03;;;;;;;;;13.00;13.00;;;;;;;;1551567;28;84674;-91
2021/01/26 11:47:49;;;;;;;;;9.00;8.75;;;;;;;;1556391;28;85235;-92
2021/01/26 11:48:34;;;;;;;;;16.75;15.00;;;;;;;;1550275;28;86660;-91
2021/01/26 11:49:19;;;;;;;;;14.25;14.25;;;;;;;;1548198;28;84483;-92
2021/01/26 11:50:10;;;;;;;;;18.00;16.75;;;;;;;;1546833;28;87589;-91
2021/01/26 11:50:55;;;;;;;;;13.20;13.20;;;;;;;;1545192;28;85670;-92
2021/01/26 11:51:40;;;;;;;;;15.00;14.50;;;;;;;;1547824;28;84322;-92
2021/01/26 11:52:26;;;;;;;;;16.75;14.25;;;;;;;;1557218;27;84414;-92
2021/01/26 11:53:14;;;;;;;;;15.25;14.00;;;;;;;;1562437;27;86860;-92
2021/01/26 11:53:59;;;;;;;;;15.00;14.60;;;;;;;;1557771;28;83537;-92
2021/01/26 11:54:45;;;;;;;;;17.25;15.50;;;;;;;;1554018;28;86956;-92
2021/01/26 11:55:33;;;;;;;;;20.50;16.25;;;;;;;;1549861;28;84901;-91
2021/01/26 11:56:19;;;;;;;;;16.40;15.20;;;;;;;;1556503;28;84584;-93
2021/01/26 11:57:07;;;;;;;;;15.40;15.20;;;;;;;;1554480;28;85526;-92
2021/01/26 11:57:55;;;;;;;;;16.80;16.40;;;;;;;;1548397;28;85445;-93
2021/01/26 11:58:40;;;;;;;;;15.60;15.00;;;;;;;;1547602;28;85023;-93
2021/01/26 11:59:26;;;;;;;;;17.25;15.50;;;;;;;;1550570;28;86109;-92
2021/01/26 12:00:14;;;;;;;;;12.00;11.00;;;;;;;;1550082;28;83991;-93
2021/01/26 12:00:59;;;;;;;;;7.80;7.80;;;;;;;;1555121;28;85599;-92
2021/01/26 12:01:49;;;;;;;;;21.00;17.00;;;;;;;;1557149;28;84787;-95
2021/01/26 12:02:34;;;;;;;;;18.60;16.00;;;;;;;;1554351;28;83651;-92
2021/01/26 12:03:21;;;;;;;;;18.25;16.75;;;;;;;;1554365;28;86809;-91
2021/01/26 12:04:07;;;;;;;;;16.60;15.00;;;;;;;;1554375;28;84674;-92
2021/01/26 12:04:52;;;;;;;;;17.75;15.75;;;;;;;;1554176;28;84491;-92
2021/01/26 12:05:38;;;;;;;;;14.75;14.75;;;;;;;;1554093;28;85964;-92
2021/01/26 12:06:32;;;;;;;;;16.00;13.80;;;;;;;;1550475;28;84855;-94
2021/01/26 12:07:22;;;;;;;;;17.80;16.60;;;;;;;;1548971;28;85776;-94
2021/01/26 12:08:08;;;;;;;;;12.60;12.60;;;;;;;;1558141;28;83751;-92
2021/01/26 12:09:10;;;;;;;;;17.00;14.00;;;;;;;;1560729;28;86344;-92
2021/01/26 12:09:56;;;;;;;;;17.60;15.00;;;;;;;;1560775;28;83898;-91
2021/01/26 12:10:41;;;;;;;;;14.75;14.75;;;;;;;;1555016;28;86322;-92
2021/01/26 12:11:27;;;;;;;;;18.00;15.50;;;;;;;;1554416;28;85850;-92
2021/01/26 12:12:14;;;;;;;;;19.25;16.00;;;;;;;;1556733;28;85251;-93
2021/01/26 12:13:01;;;;;;;;;13.80;13.80;;;;;;;;1554706;28;84872;-91
2021/01/26 12:13:46;;;;;;;;;14.20;14.00;;;;;;;;1554405;28;85490;-91
2021/01/26 12:14:31;;;;;;;;;13.25;12.25;;;;;;;;1559535;28;84421;-92
2021/01/26 12:15:19;;;;;;;;;18.75;15.00;;;;;;;;1554464;28;84990;-92
2021/01/26 12:16:06;;;;;;;;;15.20;15.00;;;;;;;;1555041;28;85021;-93
2021/01/26 12:16:55;;;;;;;;;14.40;14.00;;;;;;;;1548919;28;85232;-91
2021/01/26 12:17:40;;;;;;;;;11.80;11.80;;;;;;;;1555025;28;83566;-91
2021/01/26 12:18:25;;;;;;;;;16.00;10.50;;;;;;;;1553282;28;86566;-92
2021/01/26 12:19:10;;;;;;;;;13.00;10.25;;;;;;;;1552288;28;83551;-92
2021/01/26 12:19:56;;;;;;;;;15.50;15.50;;;;;;;;1551082;28;83637;-93
2021/01/26 12:20:44;;;;;;;;;15.50;15.50;;;;;;;;1548292;28;84940;-92
2021/01/26 12:21:29;;;;;;;;;14.60;14.60;;;;;;;;1550632;28;84925;-94
2021/01/26 12:22:14;;;;;;;;;16.00;14.00;;;;;;;;1550412;28;86225;-91
2021/01/26 12:23:00;;;;;;;;;15.00;14.00;;;;;;;;1560585;27;83825;-92
2021/01/26 12:23:48;;;;;;;;;15.75;15.25;;;;;;;;1560388;27;84865;-92
2021/01/26 12:24:33;;;;;;;;;15.00;14.80;;;;;;;;1551915;28;84032;-92
2021/01/26 12:25:19;;;;;;;;;15.50;13.50;;;;;;;;1558096;27;85872;-90
2021/01/26 12:26:07;;;;;;;;;15.00;14.00;;;;;;;;1560121;28;86150;-90
2021/01/26 12:26:53;;;;;;;;;14.20;14.20;;;;;;;;1558047;28;84021;-90
2021/01/26 12:27:39;;;;;;;;;16.50;14.00;;;;;;;;1554316;28;84253;-91
2021/01/26 12:28:24;;;;;;;;;17.00;14.25;;;;;;;;1554217;28;84574;-91
2021/01/26 12:29:10;;;;;;;;;14.50;14.50;;;;;;;;1548014;28;83507;-91
2021/01/26 12:29:55;;;;;;;;;15.50;15.50;;;;;;;;1550223;28;85669;-92
2021/01/26 12:30:40;;;;;;;;;14.25;12.25;;;;;;;;1554511;27;85205;-90
2021/01/26 12:31:25;;;;;;;;;19.25;15.00;;;;;;;;1560534;28;83952;-91
2021/01/26 12:32:11;;;;;;;;;20.25;16.50;;;;;;;;1560402;28;85046;-92
2021/01/26 12:32:56;;;;;;;;;18.75;16.25;;;;;;;;1562653;27;84546;-92
2021/01/26 12:33:41;;;;;;;;;15.25;13.00;;;;;;;;1562154;27;86126;-92
2021/01/26 12:34:27;;;;;;;;;16.25;16.25;;;;;;;;1566657;27;86052;-93
2021/01/26 12:35:18;;;;;;;;;17.75;15.50;;;;;;;;1567227;27;85211;-92
2021/01/26 12:36:06;;;;;;;;;20.00;19.20;;;;;;;;1570472;27;84727;-93
2021/01/26 12:36:53;;;;;;;;;16.80;14.20;;;;;;;;1561877;28;84336;-91
2021/01/26 12:37:41;;;;;;;;;15.60;14.80;;;;;;;;1558161;28;85167;-93
2021/01/26 12:38:31;;;;;;;;;18.20;16.20;;;;;;;;1558134;28;85653;-93
2021/01/26 12:39:16;;;;;;;;;16.80;15.60;;;;;;;;1559395;27;85721;-94
2021/01/26 12:40:03;;;;;;;;;14.25;14.25;;;;;;;;1561382;28;85522;-93
2021/01/26 12:40:49;;;;;;;;;18.20;16.60;;;;;;;;1563578;27;85558;-94
2021/01/26 12:41:34;;;;;;;;;16.50;15.00;;;;;;;;1563180;27;84356;-92
2021/01/26 12:42:24;;;;;;;;;14.00;14.00;;;;;;;;1564766;28;85959;-92
2021/01/26 12:43:11;;;;;;;;;19.20;17.60;;;;;;;;1562012;28;84474;-92
2021/01/26 12:44:07;;;;;;;;;14.60;11.40;;;;;;;;1563341;28;85372;-92
2021/01/26 12:44:52;;;;;;;;;18.20;15.00;;;;;;;;1563158;27;84089;-90
2021/01/26 12:45:38;;;;;;;;;15.00;15.00;;;;;;;;1566790;27;85574;-91
2021/01/26 12:46:26;;;;;;;;;13.00;12.75;;;;;;;;1562075;28;86393;-90
2021/01/26 12:47:30;;;;;;;;;;;;;;;;;;;;;
2021/01/26 12:48:18;;;;;;;;;14.60;14.00;;;;;;;;1571747;27;111300;-91
2021/01/26 12:49:30;;;;;;;;;17.40;16.80;;;;;;;;1564594;28;85371;-91
2021/01/26 12:50:35;;;;;;;;;14.60;14.00;;;;;;;;1560495;27;85776;-93
2021/01/26 12:51:29;;;;;;;;;17.40;14.60;;;;;;;;1562968;28;86685;-94
2021/01/26 12:52:19;;;;;;;;;16.40;14.80;;;;;;;;1563317;28;85493;-94
2021/01/26 12:53:13;;;;;;;;;13.80;13.80;;;;;;;;1560962;28;86938;-95
2021/01/26 12:54:01;;;;;;;;;14.60;14.60;;;;;;;;1560483;28;83193;-95
2021/01/26 12:54:46;;;;;;;;;22.60;19.20;;;;;;;;1560509;28;85575;-93
2021/01/26 12:55:31;;;;;;;;;15.00;15.00;;;;;;;;1554285;28;84038;-92
2021/01/26 12:56:17;;;;;;;;;16.75;16.00;;;;;;;;1556302;28;85742;-92
2021/01/26 12:57:02;;;;;;;;;14.25;12.25;;;;;;;;1557282;28;85747;-93
2021/01/26 12:57:52;;;;;;;;;12.75;12.75;;;;;;;;1561031;28;85615;-93
2021/01/26 12:58:37;;;;;;;;;15.60;15.60;;;;;;;;1561487;28;84303;-94
2021/01/26 12:59:23;;;;;;;;;15.75;14.00;;;;;;;;1561493;28;87638;-93
2021/01/26 13:00:18;;;;;;;;;15.75;15.75;;;;;;;;1557811;28;83465;-93
2021/01/26 13:01:32;;;;;;;;;14.60;13.80;;;;;;;;1558571;28;84615;-93
2021/01/26 13:02:19;;;;;;;;;18.80;14.60;;;;;;;;1559910;28;85212;-94
2021/01/26 13:03:07;;;;;;;;;14.60;12.60;;;;;;;;1562350;28;85964;-93
2021/01/26 13:04:04;;;;;;;;;;;;;;;;;;;;;
2021/01/26 13:05:01;;;;;;;;;13.20;13.20;;;;;;;;1559862;28;112574;-95
2021/01/26 13:06:50;;;;;;;;;;;;;;;;;;;;;
2021/01/26 13:07:52;;;;;;;;;16.40;12.80;;;;;;;;1539294;28;84699;-93
2021/01/26 13:08:40;;;;;;;;;17.40;14.60;;;;;;;;1548289;28;85204;-95
2021/01/26 13:09:28;;;;;;;;;15.00;15.00;;;;;;;;1547916;28;83645;-92
2021/01/26 13:10:45;;;;;;;;;14.00;13.00;;;;;;;;1539122;28;84008;-94
2021/01/26 13:11:36;;;;;;;;;13.00;13.00;;;;;;;;1542252;28;83692;-93
2021/01/26 13:12:42;;;;;;;;;17.40;14.00;;;;;;;;1543879;28;83629;-95
2021/01/26 13:13:31;;;;;;;;;23.80;22.60;;;;;;;;1537532;28;85018;-91
2021/01/26 13:18:46;;;;;;;;;15.40;13.00;;;;;;;;1513476;28;82985;-91
2021/01/26 13:19:31;;;;;;;;;12.00;11.00;;;;;;;;1506666;29;86496;-92
2021/01/26 13:20:17;;;;;;;;;16.50;13.50;;;;;;;;1506568;28;85637;-94
2021/01/26 13:21:02;;;;;;;;;14.50;13.25;;;;;;;;1508364;28;83819;-95
2021/01/26 13:21:48;;;;;;;;;15.25;15.25;;;;;;;;1510345;28;83997;-93
2021/01/26 13:22:41;;;;;;;;;10.20;10.20;;;;;;;;1507215;29;83677;-94
2021/01/26 13:23:26;;;;;;;;;18.60;16.20;;;;;;;;1506408;29;83750;-93
2021/01/26 13:24:15;;;;;;;;;14.00;14.00;;;;;;;;1508604;29;83532;-93
2021/01/26 13:25:00;;;;;;;;;14.40;12.20;;;;;;;;1508309;29;84268;-92
2021/01/26 13:25:46;;;;;;;;;12.00;12.00;;;;;;;;1506450;29;85273;-93
2021/01/26 13:26:31;;;;;;;;;20.50;17.75;;;;;;;;1502585;29;85339;-92
2021/01/26 13:27:17;;;;;;;;;15.25;15.25;;;;;;;;1506237;29;86874;-93
2021/01/26 13:28:05;;;;;;;;;11.25;11.25;;;;;;;;1509104;29;84093;-92
2021/01/26 13:28:50;;;;;;;;;15.40;13.40;;;;;;;;1512194;28;85035;-92
2021/01/26 13:29:43;;;;;;;;;18.25;12.25;;;;;;;;1514592;28;83669;-93
2021/01/26 13:30:29;;;;;;;;;17.40;16.00;;;;;;;;1510053;28;85009;-93
2021/01/26 13:31:19;;;;;;;;;14.40;11.00;;;;;;;;1517609;28;85061;-93
2021/01/26 13:32:06;;;;;;;;;15.60;14.40;;;;;;;;1513595;28;83703;-91
2021/01/26 13:32:51;;;;;;;;;16.00;12.40;;;;;;;;1511489;28;85403;-92
2021/01/26 13:33:43;;;;;;;;;10.50;9.50;;;;;;;;1509465;28;84630;-91
2021/01/26 13:34:28;;;;;;;;;12.00;12.00;;;;;;;;1514312;28;83721;-92
2021/01/26 13:35:17;;;;;;;;;14.50;14.50;;;;;;;;1514382;28;85155;-91
2021/01/26 13:36:02;;;;;;;;;19.00;18.00;;;;;;;;1510998;28;86976;-91
2021/01/26 13:36:47;;;;;;;;;18.25;14.50;;;;;;;;1507728;29;85785;-92